Time;durP1;ratioP1;P1;durP2;ratioP2;P2;SDS_P1;SDS_P2;PMS_P1;PMS_P2;Temp;Humidity;BMP_temperature;BMP_pressure;BME280_temperature;BME280_humidity;BME280_pressure;Samples;Min_cycle;Max_cycle;Signal;HPM_P1;HPM_P2
2024/03/24 00:01:34;;;;;;;0.40;0.40;;;;;;;;;;4960784;29;20218;-86
2024/03/24 00:04:44;;;;;;;0.30;0.30;;;;;;;;;;4931816;29;20612;-87
2024/03/24 00:07:49;;;;;;;0.40;0.40;;;;;;;;;;4941070;29;20192;-88
2024/03/24 00:10:54;;;;;;;1.13;1.00;;;;;;;;;;4940769;29;20199;-89
2024/03/24 00:13:59;;;;;;;0.50;0.50;;;;;;;;;;4940907;29;20203;-87
2024/03/24 00:17:04;;;;;;;0.40;0.40;;;;;;;;;;4949669;28;20203;-87
2024/03/24 00:20:10;;;;;;;0.70;0.70;;;;;;;;;;4938192;28;20601;-88
2024/03/24 00:23:17;;;;;;;4.63;0.77;;;;;;;;;;4939091;28;20192;-87
2024/03/24 00:26:21;;;;;;;0.30;0.30;;;;;;;;;;4930063;28;20302;-87
2024/03/24 00:29:26;;;;;;;3.20;0.70;;;;;;;;;;4950004;28;20194;-89
2024/03/24 00:32:30;;;;;;;0.40;0.40;;;;;;;;;;4949697;28;20246;-86
2024/03/24 00:35:39;;;;;;;0.63;0.63;;;;;;;;;;4949667;28;20258;-87
2024/03/24 00:38:44;;;;;;;0.40;0.40;;;;;;;;;;4951377;28;20707;-89
2024/03/24 00:41:49;;;;;;;0.47;0.47;;;;;;;;;;4948426;28;20310;-88
2024/03/24 00:44:53;;;;;;;0.40;0.40;;;;;;;;;;4947160;29;20191;-89
2024/03/24 00:47:59;;;;;;;6.60;1.73;;;;;;;;;;4947663;28;20179;-89
2024/03/24 00:51:05;;;;;;;6.40;1.93;;;;;;;;;;4949275;29;20199;-88
2024/03/24 00:54:10;;;;;;;4.27;1.73;;;;;;;;;;4947825;28;20288;-88
2024/03/24 00:57:15;;;;;;;5.70;1.67;;;;;;;;;;4943154;28;20674;-87
2024/03/24 01:00:20;;;;;;;7.50;1.87;;;;;;;;;;4957294;28;20305;-88
2024/03/24 01:03:25;;;;;;;3.33;1.50;;;;;;;;;;4946227;28;20207;-87
2024/03/24 01:06:31;;;;;;;5.07;1.83;;;;;;;;;;4945366;28;20187;-88
2024/03/24 01:09:36;;;;;;;3.13;1.50;;;;;;;;;;4945475;28;20227;-87
2024/03/24 01:12:42;;;;;;;5.13;1.47;;;;;;;;;;4946189;28;20564;-89
2024/03/24 01:15:46;;;;;;;4.23;1.47;;;;;;;;;;4946376;28;20293;-86
2024/03/24 01:18:52;;;;;;;4.10;1.60;;;;;;;;;;4945116;28;20198;-90
2024/03/24 01:21:57;;;;;;;5.13;1.63;;;;;;;;;;4945237;29;20211;-90
2024/03/24 01:25:03;;;;;;;7.30;1.90;;;;;;;;;;4946415;28;20245;-88
2024/03/24 01:28:07;;;;;;;6.73;1.77;;;;;;;;;;4927612;28;20199;-88
2024/03/24 01:31:12;;;;;;;3.43;1.70;;;;;;;;;;4944638;28;20206;-87
2024/03/24 01:34:16;;;;;;;11.13;3.80;;;;;;;;;;4944217;28;20210;-89
2024/03/24 01:37:23;;;;;;;5.53;2.27;;;;;;;;;;4944797;28;20214;-88
2024/03/24 01:40:27;;;;;;;6.90;2.97;;;;;;;;;;4945985;28;20206;-88
2024/03/24 01:43:36;;;;;;;8.80;2.60;;;;;;;;;;4945905;28;20196;-89
2024/03/24 01:46:42;;;;;;;6.73;1.77;;;;;;;;;;4945288;28;20242;-88
2024/03/24 01:49:46;;;;;;;5.00;2.00;;;;;;;;;;4944416;28;20659;-88
2024/03/24 01:52:53;;;;;;;12.13;5.17;;;;;;;;;;4944759;28;20211;-87
2024/03/24 01:55:58;;;;;;;5.83;1.50;;;;;;;;;;4943560;29;20215;-88
2024/03/24 01:59:02;;;;;;;4.90;1.70;;;;;;;;;;4926107;29;20192;-89
2024/03/24 02:02:07;;;;;;;6.77;1.70;;;;;;;;;;4925845;29;20203;-89
2024/03/24 02:05:11;;;;;;;5.57;2.03;;;;;;;;;;4936433;28;20210;-89
2024/03/24 02:08:18;;;;;;;4.20;1.80;;;;;;;;;;4936952;28;20199;-88
2024/03/24 02:11:22;;;;;;;2.90;2.00;;;;;;;;;;4926479;28;20263;-88
2024/03/24 02:14:28;;;;;;;4.57;1.70;;;;;;;;;;4931016;29;20235;-87
2024/03/24 02:17:32;;;;;;;5.60;1.77;;;;;;;;;;4945283;28;20215;-86
2024/03/24 02:20:37;;;;;;;8.07;1.87;;;;;;;;;;4943599;29;20726;-88
2024/03/24 02:23:43;;;;;;;6.13;2.10;;;;;;;;;;4937403;28;20191;-86
2024/03/24 02:26:49;;;;;;;6.30;2.00;;;;;;;;;;4937236;28;20223;-89
2024/03/24 02:29:54;;;;;;;3.13;1.70;;;;;;;;;;4946082;28;20207;-89
2024/03/24 02:32:58;;;;;;;4.57;1.60;;;;;;;;;;4937034;28;20214;-88
2024/03/24 02:36:04;;;;;;;5.80;2.33;;;;;;;;;;4943692;28;20287;-88
2024/03/24 02:39:10;;;;;;;6.23;1.67;;;;;;;;;;4943360;28;20207;-87
2024/03/24 02:42:15;;;;;;;7.60;1.93;;;;;;;;;;4944175;28;20243;-88
2024/03/24 02:45:20;;;;;;;4.63;2.10;;;;;;;;;;4924052;29;20207;-89
2024/03/24 02:48:25;;;;;;;4.17;2.10;;;;;;;;;;4953429;28;20569;-89
2024/03/24 02:51:29;;;;;;;7.23;2.23;;;;;;;;;;4943300;29;20206;-87
2024/03/24 02:54:36;;;;;;;5.83;2.33;;;;;;;;;;4944914;28;20231;-87
2024/03/24 02:57:40;;;;;;;4.97;2.20;;;;;;;;;;4942472;29;20226;-88
2024/03/24 03:00:46;;;;;;;6.43;1.87;;;;;;;;;;4944902;28;20255;-87
2024/03/24 03:03:51;;;;;;;7.83;2.47;;;;;;;;;;4930328;28;20594;-88
2024/03/24 03:06:57;;;;;;;8.20;2.10;;;;;;;;;;4935748;29;20222;-88
2024/03/24 03:10:04;;;;;;;4.50;1.93;;;;;;;;;;4944081;28;20198;-89
2024/03/24 03:13:12;;;;;;;5.17;2.20;;;;;;;;;;4944608;28;20206;-90
2024/03/24 03:16:17;;;;;;;5.13;1.80;;;;;;;;;;4925640;28;20702;-87
2024/03/24 03:19:22;;;;;;;5.73;2.03;;;;;;;;;;4929248;28;20231;-88
2024/03/24 03:22:26;;;;;;;7.37;1.93;;;;;;;;;;4944170;29;20187;-89
2024/03/24 03:25:33;;;;;;;5.37;1.80;;;;;;;;;;4941386;28;20252;-87
2024/03/24 03:28:38;;;;;;;9.30;1.90;;;;;;;;;;4938953;28;20192;-86
2024/03/24 03:31:43;;;;;;;7.57;1.80;;;;;;;;;;4930332;28;20248;-89
2024/03/24 03:34:48;;;;;;;6.90;2.43;;;;;;;;;;4935662;29;20703;-89
2024/03/24 03:37:52;;;;;;;5.90;1.80;;;;;;;;;;4939679;29;20295;-86
2024/03/24 03:40:58;;;;;;;4.50;2.33;;;;;;;;;;4945476;28;20689;-88
2024/03/24 03:44:02;;;;;;;5.67;1.70;;;;;;;;;;4933266;29;20211;-87
2024/03/24 03:47:08;;;;;;;5.20;1.83;;;;;;;;;;4943069;28;20275;-89
2024/03/24 03:50:17;;;;;;;4.00;1.60;;;;;;;;;;4934752;28;20208;-88
2024/03/24 03:53:24;;;;;;;6.10;1.70;;;;;;;;;;4942138;28;20255;-87
2024/03/24 03:56:30;;;;;;;5.27;1.63;;;;;;;;;;4942777;29;20214;-87
2024/03/24 03:59:35;;;;;;;3.83;1.57;;;;;;;;;;4941131;28;20262;-88
2024/03/24 04:02:39;;;;;;;6.60;1.70;;;;;;;;;;4941843;29;20203;-88
2024/03/24 04:05:44;;;;;;;2.97;1.50;;;;;;;;;;4934817;28;20235;-88
2024/03/24 04:08:48;;;;;;;3.10;1.60;;;;;;;;;;4935837;29;20336;-89
2024/03/24 04:11:55;;;;;;;4.70;1.73;;;;;;;;;;4947608;28;20215;-88
2024/03/24 04:15:00;;;;;;;8.07;1.77;;;;;;;;;;4934898;29;20224;-89
2024/03/24 04:18:04;;;;;;;7.70;1.80;;;;;;;;;;4929973;29;20235;-87
2024/03/24 04:21:10;;;;;;;4.90;1.60;;;;;;;;;;4923312;29;20242;-87
2024/03/24 04:24:14;;;;;;;3.10;1.50;;;;;;;;;;4953988;29;20223;-89
2024/03/24 04:27:20;;;;;;;6.40;2.10;;;;;;;;;;4944069;29;20571;-89
2024/03/24 04:30:26;;;;;;;3.63;1.40;;;;;;;;;;4944844;29;20582;-88
2024/03/24 04:33:31;;;;;;;5.40;2.00;;;;;;;;;;4942567;28;20258;-87
2024/03/24 04:36:36;;;;;;;5.17;1.90;;;;;;;;;;4943262;28;20583;-88
2024/03/24 04:39:40;;;;;;;5.37;2.00;;;;;;;;;;4943390;28;20572;-89
2024/03/24 04:42:47;;;;;;;7.37;1.87;;;;;;;;;;4942002;28;20219;-89
2024/03/24 04:45:51;;;;;;;4.40;1.87;;;;;;;;;;4946154;29;20243;-88
2024/03/24 04:48:57;;;;;;;3.47;1.40;;;;;;;;;;4927173;28;20187;-86
2024/03/24 04:52:06;;;;;;;3.67;1.40;;;;;;;;;;4938938;28;20202;-88
2024/03/24 04:55:10;;;;;;;4.43;1.60;;;;;;;;;;4928408;28;20748;-87
2024/03/24 04:58:17;;;;;;;5.50;1.50;;;;;;;;;;4953707;28;20207;-86
2024/03/24 05:01:22;;;;;;;3.40;1.13;;;;;;;;;;4945948;28;20340;-88
2024/03/24 05:04:27;;;;;;;4.30;1.40;;;;;;;;;;4946227;28;20243;-87
2024/03/24 05:07:31;;;;;;;5.70;1.33;;;;;;;;;;4927485;29;20290;-87
2024/03/24 05:10:41;;;;;;;5.37;1.43;;;;;;;;;;4925609;28;20239;-87
2024/03/24 05:13:48;;;;;;;7.37;1.60;;;;;;;;;;4938674;28;20192;-89
2024/03/24 05:16:53;;;;;;;0.60;0.60;;;;;;;;;;4938707;29;20310;-88
2024/03/24 05:19:58;;;;;;;0.40;0.40;;;;;;;;;;4947148;29;20187;-88
2024/03/24 05:23:03;;;;;;;0.70;0.60;;;;;;;;;;4948174;28;20206;-88
2024/03/24 05:26:09;;;;;;;0.33;0.33;;;;;;;;;;4934700;29;20208;-88
2024/03/24 05:29:17;;;;;;;0.30;0.30;;;;;;;;;;4927390;28;20191;-89
2024/03/24 05:32:21;;;;;;;0.30;0.30;;;;;;;;;;4938085;29;20212;-88
2024/03/24 05:35:26;;;;;;;0.30;0.30;;;;;;;;;;4945674;29;20267;-88
2024/03/24 05:38:31;;;;;;;0.30;0.30;;;;;;;;;;4946593;29;20219;-86
2024/03/24 05:41:36;;;;;;;0.50;0.50;;;;;;;;;;4946614;28;20635;-88
2024/03/24 05:44:42;;;;;;;0.30;0.30;;;;;;;;;;4947125;28;20190;-88
2024/03/24 05:47:47;;;;;;;0.57;0.57;;;;;;;;;;4946287;28;20207;-87
2024/03/24 05:50:57;;;;;;;0.30;0.30;;;;;;;;;;4947431;29;20207;-86
2024/03/24 05:54:03;;;;;;;1.03;0.93;;;;;;;;;;4938573;28;20196;-87
2024/03/24 05:57:07;;;;;;;0.63;0.63;;;;;;;;;;4927952;28;20231;-89
2024/03/24 06:00:15;;;;;;;0.47;0.47;;;;;;;;;;4940138;28;20248;-89
2024/03/24 06:03:22;;;;;;;0.50;0.50;;;;;;;;;;4938243;28;20184;-88
2024/03/24 06:06:26;;;;;;;0.30;0.30;;;;;;;;;;4952956;28;20574;-87
2024/03/24 06:09:32;;;;;;;1.40;0.70;;;;;;;;;;4945272;29;20235;-88
2024/03/24 06:12:35;;;;;;;0.30;0.30;;;;;;;;;;4956232;28;20560;-88
2024/03/24 06:15:44;;;;;;;0.30;0.30;;;;;;;;;;4944609;28;20218;-89
2024/03/24 06:18:48;;;;;;;0.30;0.30;;;;;;;;;;4945745;29;20183;-88
2024/03/24 06:21:54;;;;;;;0.30;0.30;;;;;;;;;;4942520;28;20194;-89
2024/03/24 06:24:58;;;;;;;0.30;0.30;;;;;;;;;;4938073;28;20331;-87
2024/03/24 06:28:04;;;;;;;0.30;0.30;;;;;;;;;;4945078;29;20187;-89
2024/03/24 06:31:09;;;;;;;0.70;0.70;;;;;;;;;;4936141;29;20210;-89
2024/03/24 06:34:15;;;;;;;0.90;0.90;;;;;;;;;;4939211;28;20195;-88
2024/03/24 06:37:19;;;;;;;0.30;0.30;;;;;;;;;;4933449;28;20286;-87
2024/03/24 06:40:25;;;;;;;0.40;0.40;;;;;;;;;;4944856;28;20286;-88
2024/03/24 06:43:36;;;;;;;0.57;0.57;;;;;;;;;;4944975;28;20207;-88
2024/03/24 06:46:44;;;;;;;0.33;0.33;;;;;;;;;;4941750;28;20196;-90
2024/03/24 06:49:48;;;;;;;0.43;0.43;;;;;;;;;;4946386;28;20191;-88
2024/03/24 06:52:54;;;;;;;0.80;0.70;;;;;;;;;;4945975;28;20291;-88
2024/03/24 06:55:58;;;;;;;0.40;0.40;;;;;;;;;;4945574;29;20215;-89
2024/03/24 06:59:03;;;;;;;3.50;1.20;;;;;;;;;;4944482;29;20218;-89
2024/03/24 07:02:09;;;;;;;0.87;0.57;;;;;;;;;;4943146;29;20564;-89
2024/03/24 07:05:14;;;;;;;0.30;0.30;;;;;;;;;;4941523;29;20266;-88
2024/03/24 07:08:19;;;;;;;0.30;0.30;;;;;;;;;;4943312;29;20265;-89
2024/03/24 07:11:24;;;;;;;0.30;0.30;;;;;;;;;;4936172;29;20206;-88
2024/03/24 07:14:28;;;;;;;0.30;0.30;;;;;;;;;;4930917;29;20203;-87
2024/03/24 07:17:34;;;;;;;0.33;0.33;;;;;;;;;;4943184;29;20627;-88
2024/03/24 07:20:38;;;;;;;0.97;0.83;;;;;;;;;;4925204;29;20328;-87
2024/03/24 07:23:43;;;;;;;0.30;0.30;;;;;;;;;;4951322;28;20224;-89
2024/03/24 07:26:48;;;;;;;0.53;0.40;;;;;;;;;;4943950;28;20203;-87
2024/03/24 07:29:54;;;;;;;0.87;0.77;;;;;;;;;;4937306;28;20198;-86
2024/03/24 07:32:59;;;;;;;0.30;0.30;;;;;;;;;;4945242;28;20211;-88
2024/03/24 07:36:06;;;;;;;0.30;0.30;;;;;;;;;;4944073;28;20331;-87
2024/03/24 07:39:10;;;;;;;0.40;0.40;;;;;;;;;;4939470;28;20199;-88
2024/03/24 07:42:15;;;;;;;0.40;0.40;;;;;;;;;;4932875;28;20253;-88
2024/03/24 07:45:19;;;;;;;0.30;0.30;;;;;;;;;;4943935;28;20215;-88
2024/03/24 07:48:25;;;;;;;0.63;0.63;;;;;;;;;;4941969;28;20207;-89
2024/03/24 07:51:31;;;;;;;0.80;0.80;;;;;;;;;;4930503;28;20206;-87
2024/03/24 07:54:36;;;;;;;0.60;0.60;;;;;;;;;;4943690;28;20328;-88
2024/03/24 07:57:40;;;;;;;0.30;0.30;;;;;;;;;;4943872;29;20196;-90
2024/03/24 08:00:45;;;;;;;1.07;0.60;;;;;;;;;;4945184;29;20218;-88
2024/03/24 08:03:50;;;;;;;0.40;0.40;;;;;;;;;;4956115;28;20211;-87
2024/03/24 08:06:55;;;;;;;2.33;1.23;;;;;;;;;;4957681;28;20219;-87
2024/03/24 08:09:59;;;;;;;0.93;0.80;;;;;;;;;;4947561;28;20546;-86
2024/03/24 08:13:05;;;;;;;0.30;0.30;;;;;;;;;;4951248;28;20210;-90
2024/03/24 08:16:09;;;;;;;0.40;0.40;;;;;;;;;;4945399;28;20223;-86
2024/03/24 08:19:16;;;;;;;0.70;0.70;;;;;;;;;;4948230;28;20214;-86
2024/03/24 08:22:22;;;;;;;0.83;0.60;;;;;;;;;;4950178;28;20215;-87
2024/03/24 08:25:26;;;;;;;0.30;0.30;;;;;;;;;;4949111;28;20180;-89
2024/03/24 08:28:32;;;;;;;0.73;0.73;;;;;;;;;;4946174;28;20263;-89
2024/03/24 08:31:37;;;;;;;0.30;0.30;;;;;;;;;;4949282;28;20208;-87
2024/03/24 08:34:43;;;;;;;0.40;0.40;;;;;;;;;;4942303;28;20686;-88
2024/03/24 08:37:49;;;;;;;0.50;0.50;;;;;;;;;;4948584;28;20269;-89
2024/03/24 08:40:53;;;;;;;0.40;0.40;;;;;;;;;;4939253;28;20211;-88
2024/03/24 08:43:58;;;;;;;0.40;0.40;;;;;;;;;;4948960;28;20210;-90
2024/03/24 08:47:02;;;;;;;0.30;0.30;;;;;;;;;;4936503;29;20330;-89
2024/03/24 08:50:10;;;;;;;0.40;0.40;;;;;;;;;;4947638;28;20262;-89
2024/03/24 08:53:15;;;;;;;0.30;0.30;;;;;;;;;;4945391;29;20246;-88
2024/03/24 08:56:20;;;;;;;0.40;0.40;;;;;;;;;;4941025;29;20230;-87
2024/03/24 08:59:25;;;;;;;0.30;0.30;;;;;;;;;;4950336;28;20685;-88
2024/03/24 09:02:29;;;;;;;0.30;0.30;;;;;;;;;;4947877;29;20267;-90
2024/03/24 09:05:36;;;;;;;0.30;0.30;;;;;;;;;;4940632;29;20231;-89
2024/03/24 09:08:40;;;;;;;0.57;0.57;;;;;;;;;;4935122;29;20195;-88
2024/03/24 09:11:46;;;;;;;0.40;0.40;;;;;;;;;;4930198;28;20243;-89
2024/03/24 09:14:50;;;;;;;0.52;0.50;;;;;;;;;;4946418;29;20198;-89
2024/03/24 09:17:56;;;;;;;0.50;0.50;;;;;;;;;;4941690;29;20215;-87
2024/03/24 09:21:05;;;;;;;0.30;0.30;;;;;;;;;;4945169;28;20206;-87
2024/03/24 09:24:10;;;;;;;3.90;1.03;;;;;;;;;;4944542;28;20251;-89
2024/03/24 09:27:16;;;;;;;0.30;0.30;;;;;;;;;;4950430;29;20239;-89
2024/03/24 09:30:24;;;;;;;2.17;0.77;;;;;;;;;;4954426;28;20740;-89
2024/03/24 09:33:32;;;;;;;0.30;0.30;;;;;;;;;;4950007;28;20262;-87
2024/03/24 09:36:40;;;;;;;0.40;0.40;;;;;;;;;;4949390;28;20289;-88
2024/03/24 09:39:45;;;;;;;0.50;0.43;;;;;;;;;;4950487;28;20358;-88
2024/03/24 09:42:50;;;;;;;0.40;0.40;;;;;;;;;;4944551;29;20211;-90
2024/03/24 09:45:57;;;;;;;0.40;0.40;;;;;;;;;;4932814;29;20219;-88
2024/03/24 09:49:05;;;;;;;0.30;0.30;;;;;;;;;;4948140;28;20191;-88
2024/03/24 09:52:12;;;;;;;0.60;0.60;;;;;;;;;;4947570;28;20203;-89
2024/03/24 09:55:17;;;;;;;0.37;0.37;;;;;;;;;;4941760;28;20234;-89
2024/03/24 09:58:23;;;;;;;0.40;0.40;;;;;;;;;;4934284;28;20203;-90
2024/03/24 10:01:27;;;;;;;0.63;0.53;;;;;;;;;;4930142;28;20203;-88
2024/03/24 10:04:33;;;;;;;0.30;0.30;;;;;;;;;;4944331;28;20618;-88
2024/03/24 10:07:39;;;;;;;0.30;0.30;;;;;;;;;;4926448;28;20196;-88
2024/03/24 10:10:44;;;;;;;0.30;0.30;;;;;;;;;;4948596;28;20207;-89
2024/03/24 10:13:48;;;;;;;0.55;0.47;;;;;;;;;;4947384;28;20561;-87
2024/03/24 10:16:53;;;;;;;0.40;0.40;;;;;;;;;;4947315;28;20299;-88
2024/03/24 10:20:02;;;;;;;0.30;0.30;;;;;;;;;;4947197;28;20239;-89
2024/03/24 10:23:09;;;;;;;0.20;0.20;;;;;;;;;;4938446;29;20219;-86
2024/03/24 10:26:24;;;;;;;0.30;0.30;;;;;;;;;;4956792;28;20187;-88
2024/03/24 10:29:30;;;;;;;0.30;0.30;;;;;;;;;;4941581;28;20256;-89
2024/03/24 10:32:34;;;;;;;0.30;0.30;;;;;;;;;;4947883;28;20202;-89
2024/03/24 10:35:39;;;;;;;0.40;0.40;;;;;;;;;;4947755;28;20210;-88
2024/03/24 10:38:51;;;;;;;0.40;0.40;;;;;;;;;;4949313;28;20207;-89
2024/03/24 10:41:56;;;;;;;0.45;0.45;;;;;;;;;;4947649;28;20354;-87
2024/03/24 10:45:03;;;;;;;0.50;0.50;;;;;;;;;;4948444;28;20263;-87
2024/03/24 10:48:09;;;;;;;0.20;0.20;;;;;;;;;;4945150;28;20631;-88
2024/03/24 10:51:17;;;;;;;0.30;0.30;;;;;;;;;;4928652;28;20192;-89
2024/03/24 10:54:24;;;;;;;0.35;0.35;;;;;;;;;;4929264;28;20172;-90
2024/03/24 10:57:28;;;;;;;0.25;0.25;;;;;;;;;;4946194;29;20235;-87
2024/03/24 11:00:33;;;;;;;0.20;0.20;;;;;;;;;;4928182;29;20192;-88
2024/03/24 11:03:41;;;;;;;0.28;0.28;;;;;;;;;;4937721;28;20206;-88
2024/03/24 11:06:49;;;;;;;0.30;0.30;;;;;;;;;;4945717;28;20236;-89
2024/03/24 11:09:58;;;;;;;0.40;0.40;;;;;;;;;;4935034;28;20203;-87
2024/03/24 11:13:03;;;;;;;0.30;0.30;;;;;;;;;;4944017;29;20198;-88
2024/03/24 11:16:08;;;;;;;19.38;0.63;;;;;;;;;;4945481;28;20254;-87
2024/03/24 11:19:18;;;;;;;0.30;0.30;;;;;;;;;;4947560;28;20191;-88
2024/03/24 11:22:34;;;;;;;0.25;0.25;;;;;;;;;;4946982;28;20199;-88
2024/03/24 11:25:40;;;;;;;3.28;0.95;;;;;;;;;;4945683;28;20288;-88
2024/03/24 11:28:45;;;;;;;1.63;0.82;;;;;;;;;;4946676;28;20171;-88
2024/03/24 11:31:53;;;;;;;1.88;0.80;;;;;;;;;;4946196;28;20215;-88
2024/03/24 11:34:57;;;;;;;1.13;0.80;;;;;;;;;;4957674;28;20251;-87
2024/03/24 11:38:12;;;;;;;1.52;0.70;;;;;;;;;;4947968;28;20223;-88
2024/03/24 11:41:17;;;;;;;1.33;0.90;;;;;;;;;;4939165;28;20350;-90
2024/03/24 11:44:25;;;;;;;4.65;0.90;;;;;;;;;;4946397;28;20244;-86
2024/03/24 11:47:29;;;;;;;2.13;0.90;;;;;;;;;;4934981;28;20662;-88
2024/03/24 11:50:35;;;;;;;2.00;0.95;;;;;;;;;;4927109;28;20192;-88
2024/03/24 11:53:41;;;;;;;0.80;0.80;;;;;;;;;;4935478;28;20560;-87
2024/03/24 11:56:47;;;;;;;1.42;0.80;;;;;;;;;;4947720;28;20237;-86
2024/03/24 11:59:52;;;;;;;1.13;0.80;;;;;;;;;;4930564;28;20211;-88
2024/03/24 12:02:57;;;;;;;4.13;2.25;;;;;;;;;;4935950;28;20241;-86
2024/03/24 12:06:03;;;;;;;2.95;1.52;;;;;;;;;;4947312;28;20202;-88
2024/03/24 12:09:09;;;;;;;3.63;1.10;;;;;;;;;;4947536;28;20210;-88
2024/03/24 12:12:14;;;;;;;2.22;1.08;;;;;;;;;;4945952;29;20192;-89
2024/03/24 12:15:19;;;;;;;2.20;1.02;;;;;;;;;;4945301;28;20210;-87
2024/03/24 12:18:24;;;;;;;2.17;0.90;;;;;;;;;;4945498;28;20250;-88
2024/03/24 12:21:30;;;;;;;1.55;0.90;;;;;;;;;;4937991;28;20207;-87
2024/03/24 12:24:34;;;;;;;2.00;1.15;;;;;;;;;;4947090;28;20195;-89
2024/03/24 12:27:41;;;;;;;2.03;1.00;;;;;;;;;;4947393;28;20222;-87
2024/03/24 12:30:51;;;;;;;3.08;1.40;;;;;;;;;;4947427;28;20219;-87
2024/03/24 12:33:59;;;;;;;2.28;1.27;;;;;;;;;;4941937;29;20256;-89
2024/03/24 12:37:07;;;;;;;2.53;0.80;;;;;;;;;;4947770;29;20230;-87
2024/03/24 12:40:15;;;;;;;2.83;0.93;;;;;;;;;;4932369;29;20669;-88
2024/03/24 12:46:43;;;;;;;2.33;0.90;;;;;;;;;;4947159;28;20215;-86
2024/03/24 12:49:48;;;;;;;1.33;0.82;;;;;;;;;;4944300;28;20255;-89
2024/03/24 12:52:57;;;;;;;1.27;0.95;;;;;;;;;;4948072;28;20211;-88
2024/03/24 12:56:02;;;;;;;1.80;0.80;;;;;;;;;;4949207;28;20270;-90
2024/03/24 12:59:08;;;;;;;1.10;0.82;;;;;;;;;;4938721;28;20284;-88
2024/03/24 13:02:12;;;;;;;3.85;1.30;;;;;;;;;;4948261;28;20218;-87
2024/03/24 13:05:19;;;;;;;3.40;0.90;;;;;;;;;;4941419;28;20338;-88
2024/03/24 13:08:23;;;;;;;3.85;1.20;;;;;;;;;;4940266;28;20867;-86
2024/03/24 13:11:29;;;;;;;2.90;1.33;;;;;;;;;;4948191;29;20214;-90
2024/03/24 13:14:37;;;;;;;3.22;1.15;;;;;;;;;;4951419;28;20297;-89
2024/03/24 13:17:42;;;;;;;2.20;1.13;;;;;;;;;;4940003;28;20335;-89
2024/03/24 13:20:49;;;;;;;2.83;1.13;;;;;;;;;;4948861;28;20179;-88
2024/03/24 13:23:54;;;;;;;4.72;1.60;;;;;;;;;;4946538;29;20214;-88
2024/03/24 13:27:00;;;;;;;6.90;1.55;;;;;;;;;;4947227;29;20212;-87
2024/03/24 13:30:06;;;;;;;2.38;1.20;;;;;;;;;;4939089;29;20192;-89
2024/03/24 13:33:11;;;;;;;3.72;1.20;;;;;;;;;;4943263;28;20210;-87
2024/03/24 13:36:20;;;;;;;3.88;1.88;;;;;;;;;;4947338;28;20207;-87
2024/03/24 13:39:29;;;;;;;5.22;1.92;;;;;;;;;;4947570;28;20246;-87
2024/03/24 13:42:40;;;;;;;4.20;1.33;;;;;;;;;;4937424;29;20255;-88
2024/03/24 13:45:54;;;;;;;3.30;1.45;;;;;;;;;;4947463;28;20690;-89
2024/03/24 13:49:00;;;;;;;2.97;1.50;;;;;;;;;;4945872;28;20187;-89
2024/03/24 13:52:06;;;;;;;5.57;1.48;;;;;;;;;;4948280;28;20181;-88
2024/03/24 13:55:11;;;;;;;4.85;1.80;;;;;;;;;;4947414;28;20630;-89
2024/03/24 13:58:15;;;;;;;2.60;1.52;;;;;;;;;;4947848;28;20219;-89
2024/03/24 14:01:22;;;;;;;6.72;1.73;;;;;;;;;;4946724;29;20230;-88
2024/03/24 14:04:25;;;;;;;5.32;2.10;;;;;;;;;;4946977;29;20701;-88
2024/03/24 14:07:31;;;;;;;4.93;2.13;;;;;;;;;;4953796;28;20255;-89
2024/03/24 14:10:35;;;;;;;7.68;2.67;;;;;;;;;;4944894;29;20214;-89
2024/03/24 14:13:45;;;;;;;5.65;2.13;;;;;;;;;;4945936;28;20191;-87
2024/03/24 14:16:54;;;;;;;3.25;1.45;;;;;;;;;;4936026;28;20356;-89
2024/03/24 14:20:00;;;;;;;2.53;1.33;;;;;;;;;;4944622;29;20207;-87
2024/03/24 14:23:10;;;;;;;2.95;1.50;;;;;;;;;;4935932;28;20196;-87
2024/03/24 14:26:15;;;;;;;2.00;1.33;;;;;;;;;;4946654;28;20268;-90
2024/03/24 14:29:19;;;;;;;2.83;1.20;;;;;;;;;;4941178;28;20258;-87
2024/03/24 14:32:26;;;;;;;2.63;1.23;;;;;;;;;;4946075;28;20873;-89
2024/03/24 14:35:46;;;;;;;2.08;1.00;;;;;;;;;;4945140;28;20199;-88
2024/03/24 14:39:02;;;;;;;4.30;1.35;;;;;;;;;;4946004;28;20239;-86
2024/03/24 14:42:10;;;;;;;1.60;1.00;;;;;;;;;;4946118;28;20709;-88
2024/03/24 14:45:21;;;;;;;4.63;1.30;;;;;;;;;;4939477;28;20215;-87
2024/03/24 14:48:28;;;;;;;2.47;1.10;;;;;;;;;;4933185;28;20219;-87
2024/03/24 14:51:33;;;;;;;2.80;1.50;;;;;;;;;;4943118;28;20195;-88
2024/03/24 14:54:38;;;;;;;3.67;1.40;;;;;;;;;;4938050;29;20265;-88
2024/03/24 14:57:43;;;;;;;2.67;1.30;;;;;;;;;;4944699;29;20226;-89
2024/03/24 15:00:50;;;;;;;3.65;1.40;;;;;;;;;;4947287;28;20199;-87
2024/03/24 15:03:55;;;;;;;3.58;1.23;;;;;;;;;;4944849;28;20190;-89
2024/03/24 15:07:03;;;;;;;3.55;1.55;;;;;;;;;;4944338;28;20238;-88
2024/03/24 15:10:08;;;;;;;3.75;1.40;;;;;;;;;;4936567;28;20216;-87
2024/03/24 15:13:13;;;;;;;3.85;1.55;;;;;;;;;;4927055;28;20195;-88
2024/03/24 15:16:17;;;;;;;2.78;1.35;;;;;;;;;;4926432;28;20203;-89
2024/03/24 15:19:24;;;;;;;3.80;1.33;;;;;;;;;;4944837;28;20218;-90
2024/03/24 15:22:31;;;;;;;1.58;0.80;;;;;;;;;;4942932;28;20187;-88
2024/03/24 15:25:36;;;;;;;1.40;0.80;;;;;;;;;;4944189;28;20207;-87
2024/03/24 15:28:41;;;;;;;3.47;1.03;;;;;;;;;;4945884;28;20765;-89
2024/03/24 15:31:46;;;;;;;2.50;1.33;;;;;;;;;;4947462;28;20243;-88
2024/03/24 15:34:51;;;;;;;2.40;1.20;;;;;;;;;;4945350;28;20195;-87
2024/03/24 15:37:57;;;;;;;3.93;1.63;;;;;;;;;;4943276;28;20233;-90
2024/03/24 15:41:01;;;;;;;4.43;1.90;;;;;;;;;;4943075;28;20214;-89
2024/03/24 15:44:07;;;;;;;2.67;1.67;;;;;;;;;;4949604;28;20195;-89
2024/03/24 15:47:12;;;;;;;4.45;2.10;;;;;;;;;;4949121;28;20210;-89
2024/03/24 15:50:20;;;;;;;2.53;1.65;;;;;;;;;;4946343;28;20270;-87
2024/03/24 15:53:24;;;;;;;6.00;2.40;;;;;;;;;;4946551;28;20314;-88
2024/03/24 15:56:33;;;;;;;4.75;2.00;;;;;;;;;;4947098;28;20202;-87
2024/03/24 15:59:46;;;;;;;4.88;3.17;;;;;;;;;;4946479;28;20243;-87
2024/03/24 16:02:54;;;;;;;4.00;2.00;;;;;;;;;;4945562;28;20282;-89
2024/03/24 16:06:01;;;;;;;3.95;2.08;;;;;;;;;;4946243;28;20296;-88
2024/03/24 16:09:13;;;;;;;5.22;1.88;;;;;;;;;;4946073;28;20210;-88
2024/03/24 16:12:26;;;;;;;3.08;1.60;;;;;;;;;;4926697;28;20228;-88
2024/03/24 16:15:30;;;;;;;5.43;2.20;;;;;;;;;;4946034;28;20659;-86
2024/03/24 16:18:35;;;;;;;2.72;1.65;;;;;;;;;;4946395;28;20214;-87
2024/03/24 16:21:43;;;;;;;4.22;1.90;;;;;;;;;;4946857;28;20260;-88
2024/03/24 16:24:48;;;;;;;4.43;1.85;;;;;;;;;;4943922;28;20212;-88
2024/03/24 16:27:52;;;;;;;4.22;1.85;;;;;;;;;;4929354;28;20214;-89
2024/03/24 16:30:59;;;;;;;5.50;2.10;;;;;;;;;;4925509;29;20233;-88
2024/03/24 16:34:03;;;;;;;3.33;1.60;;;;;;;;;;4935606;28;20240;-88
2024/03/24 16:37:10;;;;;;;3.72;1.90;;;;;;;;;;4944530;29;20637;-87
2024/03/24 16:40:14;;;;;;;3.65;1.60;;;;;;;;;;4947435;28;20222;-88
2024/03/24 16:43:20;;;;;;;5.60;1.83;;;;;;;;;;4948466;28;20286;-89
2024/03/24 16:46:24;;;;;;;4.37;1.90;;;;;;;;;;4947136;29;20198;-87
2024/03/24 16:49:29;;;;;;;6.43;2.93;;;;;;;;;;4949406;28;20210;-88
2024/03/24 16:52:35;;;;;;;6.10;2.60;;;;;;;;;;4950011;28;20255;-88
2024/03/24 16:55:42;;;;;;;5.53;3.00;;;;;;;;;;4950060;28;20203;-87
2024/03/24 16:58:47;;;;;;;4.80;2.40;;;;;;;;;;4948408;28;20227;-89
2024/03/24 17:01:52;;;;;;;7.23;2.40;;;;;;;;;;4948327;28;20226;-89
2024/03/24 17:04:56;;;;;;;6.07;2.60;;;;;;;;;;4954258;28;20210;-88
2024/03/24 17:08:02;;;;;;;6.77;2.87;;;;;;;;;;4948615;28;20234;-87
2024/03/24 17:11:08;;;;;;;5.40;2.60;;;;;;;;;;4948586;28;20216;-88
2024/03/24 17:14:12;;;;;;;6.63;2.67;;;;;;;;;;4944657;28;20211;-88
2024/03/24 17:17:18;;;;;;;5.57;2.53;;;;;;;;;;4947386;28;20195;-86
2024/03/24 17:20:22;;;;;;;4.07;2.00;;;;;;;;;;4946818;29;20203;-88
2024/03/24 17:23:30;;;;;;;5.23;2.03;;;;;;;;;;4947858;28;20195;-88
2024/03/24 17:26:34;;;;;;;5.40;2.00;;;;;;;;;;4947779;28;20713;-89
2024/03/24 17:29:39;;;;;;;9.37;3.23;;;;;;;;;;4948017;28;20191;-86
2024/03/24 17:32:47;;;;;;;4.83;2.43;;;;;;;;;;4942568;28;21369;-90
2024/03/24 17:35:56;;;;;;;7.23;1.90;;;;;;;;;;4940901;29;20297;-90
2024/03/24 17:39:04;;;;;;;5.50;1.80;;;;;;;;;;4947235;28;20239;-86
2024/03/24 17:42:09;;;;;;;4.27;1.40;;;;;;;;;;4938826;29;20218;-87
2024/03/24 17:45:15;;;;;;;4.70;1.87;;;;;;;;;;4947025;28;20260;-88
2024/03/24 17:48:19;;;;;;;4.17;1.67;;;;;;;;;;4938906;28;20211;-88
2024/03/24 17:51:28;;;;;;;3.67;1.77;;;;;;;;;;4957550;28;20294;-87
2024/03/24 17:54:35;;;;;;;7.00;1.63;;;;;;;;;;4940070;28;20215;-87
2024/03/24 17:57:39;;;;;;;5.10;2.00;;;;;;;;;;4942156;28;20231;-88
2024/03/24 18:00:44;;;;;;;4.77;1.83;;;;;;;;;;4946236;28;20558;-85
2024/03/24 18:03:48;;;;;;;5.30;2.00;;;;;;;;;;4957578;28;20203;-90
2024/03/24 18:10:25;;;;;;;6.83;2.00;;;;;;;;;;4947095;28;20199;-86
2024/03/24 18:13:33;;;;;;;6.17;2.70;;;;;;;;;;4946682;28;20327;-87
2024/03/24 18:16:39;;;;;;;5.63;2.43;;;;;;;;;;4946888;28;20219;-89
2024/03/24 18:19:44;;;;;;;6.37;2.03;;;;;;;;;;4947265;29;20678;-88
2024/03/24 18:22:49;;;;;;;3.60;2.03;;;;;;;;;;4948183;28;20284;-86
2024/03/24 18:25:57;;;;;;;6.27;2.30;;;;;;;;;;4949149;28;20227;-88
2024/03/24 18:29:04;;;;;;;6.60;2.40;;;;;;;;;;4953357;28;20195;-88
2024/03/24 18:32:13;;;;;;;5.57;2.33;;;;;;;;;;4946750;29;20255;-88
2024/03/24 18:35:18;;;;;;;6.57;2.10;;;;;;;;;;4939013;29;20275;-88
2024/03/24 18:38:22;;;;;;;6.00;2.60;;;;;;;;;;4940413;28;20234;-87
2024/03/24 18:41:32;;;;;;;3.93;2.00;;;;;;;;;;4938225;29;20238;-88